sensor_id;sensor_type;location;lat;lon;timestamp;temperature;humidity
26952;DHT22;14507;52.418;13.398;2023-03-01T00:01:58;-0.60;99.90
26952;DHT22;14507;52.418;13.398;2023-03-01T00:04:24;-0.70;99.90
26952;DHT22;14507;52.418;13.398;2023-03-01T00:06:50;0.70;99.90
26952;DHT22;14507;52.418;13.398;2023-03-01T00:09:16;-0.70;99.90
26952;DHT22;14507;52.418;13.398;2023-03-01T00:11:42;-0.70;99.90
26952;DHT22;14507;52.418;13.398;2023-03-01T00:14:07;0.10;99.90
26952;DHT22;14507;52.418;13.398;2023-03-01T00:16:36;0.30;99.90
26952;DHT22;14507;52.418;13.398;2023-03-01T00:19:04;-0.80;99.90
26952;DHT22;14507;52.418;13.398;2023-03-01T00:21:29;-0.80;99.90
26952;DHT22;14507;52.418;13.398;2023-03-01T00:23:56;-0.90;99.90
26952;DHT22;14507;52.418;13.398;2023-03-01T00:26:23;-0.10;99.90
26952;DHT22;14507;52.418;13.398;2023-03-01T00:28:48;-0.90;99.90
26952;DHT22;14507;52.418;13.398;2023-03-01T00:31:17;-0.70;99.90
26952;DHT22;14507;52.418;13.398;2023-03-01T00:33:44;-0.20;99.90
26952;DHT22;14507;52.418;13.398;2023-03-01T00:36:11;-0.90;99.90
26952;DHT22;14507;52.418;13.398;2023-03-01T00:38:41;-0.90;99.90
26952;DHT22;14507;52.418;13.398;2023-03-01T00:41:07;-0.80;99.90
26952;DHT22;14507;52.418;13.398;2023-03-01T00:43:34;-0.90;99.90
26952;DHT22;14507;52.418;13.398;2023-03-01T00:46:07;-1.00;99.90
26952;DHT22;14507;52.418;13.398;2023-03-01T00:48:33;-1.00;99.90
26952;DHT22;14507;52.418;13.398;2023-03-01T00:51:13;-0.20;99.90
26952;DHT22;14507;52.418;13.398;2023-03-01T00:53:39;-1.00;99.90
26952;DHT22;14507;52.418;13.398;2023-03-01T00:56:06;-1.00;99.90
26952;DHT22;14507;52.418;13.398;2023-03-01T00:58:32;-1.00;99.90
26952;DHT22;14507;52.418;13.398;2023-03-01T01:00:59;-1.10;99.90
26952;DHT22;14507;52.418;13.398;2023-03-01T01:03:24;-1.10;99.90
26952;DHT22;14507;52.418;13.398;2023-03-01T01:05:53;-1.00;99.90
26952;DHT22;14507;52.418;13.398;2023-03-01T01:08:20;-1.00;99.90
26952;DHT22;14507;52.418;13.398;2023-03-01T01:10:46;-1.10;99.90
26952;DHT22;14507;52.418;13.398;2023-03-01T01:13:12;-1.10;99.90
26952;DHT22;14507;52.418;13.398;2023-03-01T01:15:39;0.50;99.90
26952;DHT22;14507;52.418;13.398;2023-03-01T01:18:05;0.20;99.90
26952;DHT22;14507;52.418;13.398;2023-03-01T01:20:31;0.50;99.90
26952;DHT22;14507;52.418;13.398;2023-03-01T01:22:56;0.50;99.90
26952;DHT22;14507;52.418;13.398;2023-03-01T01:25:22;-0.70;99.90
26952;DHT22;14507;52.418;13.398;2023-03-01T01:27:50;-1.30;99.90
26952;DHT22;14507;52.418;13.398;2023-03-01T01:30:16;-0.40;99.90
26952;DHT22;14507;52.418;13.398;2023-03-01T01:32:42;-1.40;99.90
26952;DHT22;14507;52.418;13.398;2023-03-01T01:35:08;-1.40;99.90
26952;DHT22;14507;52.418;13.398;2023-03-01T01:37:34;-0.10;99.90
26952;DHT22;14507;52.418;13.398;2023-03-01T01:40:00;-1.40;99.90
26952;DHT22;14507;52.418;13.398;2023-03-01T01:42:29;-1.10;99.90
26952;DHT22;14507;52.418;13.398;2023-03-01T01:45:34;-1.30;99.90
26952;DHT22;14507;52.418;13.398;2023-03-01T01:48:13;-1.40;99.90
26952;DHT22;14507;52.418;13.398;2023-03-01T01:50:42;-1.40;99.90
26952;DHT22;14507;52.418;13.398;2023-03-01T01:53:13;-1.40;99.90
26952;DHT22;14507;52.418;13.398;2023-03-01T01:55:44;-1.40;99.90
26952;DHT22;14507;52.418;13.398;2023-03-01T01:58:14;-1.40;99.90
26952;DHT22;14507;52.418;13.398;2023-03-01T02:00:41;-1.60;99.90
26952;DHT22;14507;52.418;13.398;2023-03-01T02:03:10;-1.60;99.90
26952;DHT22;14507;52.418;13.398;2023-03-01T02:05:47;-1.20;99.90
26952;DHT22;14507;52.418;13.398;2023-03-01T02:08:17;-1.60;99.90
26952;DHT22;14507;52.418;13.398;2023-03-01T02:10:45;-1.60;99.90
26952;DHT22;14507;52.418;13.398;2023-03-01T02:13:11;0.10;99.90
26952;DHT22;14507;52.418;13.398;2023-03-01T02:15:39;-1.60;99.90
26952;DHT22;14507;52.418;13.398;2023-03-01T02:18:06;-1.60;99.90
26952;DHT22;14507;52.418;13.398;2023-03-01T02:20:50;-1.60;99.90
26952;DHT22;14507;52.418;13.398;2023-03-01T02:23:18;-1.60;99.90
26952;DHT22;14507;52.418;13.398;2023-03-01T02:25:51;-1.10;99.90
26952;DHT22;14507;52.418;13.398;2023-03-01T02:28:40;-1.60;99.90
26952;DHT22;14507;52.418;13.398;2023-03-01T02:31:08;-1.60;99.90
26952;DHT22;14507;52.418;13.398;2023-03-01T02:33:53;-1.60;99.90
26952;DHT22;14507;52.418;13.398;2023-03-01T02:36:26;-1.60;99.90
26952;DHT22;14507;52.418;13.398;2023-03-01T02:38:58;-1.70;99.90
26952;DHT22;14507;52.418;13.398;2023-03-01T02:41:26;-1.70;99.90
26952;DHT22;14507;52.418;13.398;2023-03-01T02:43:53;-1.60;99.90
26952;DHT22;14507;52.418;13.398;2023-03-01T02:46:24;-1.20;99.90
26952;DHT22;14507;52.418;13.398;2023-03-01T02:48:52;-0.90;99.90
26952;DHT22;14507;52.418;13.398;2023-03-01T02:54:08;-2.40;99.90
26952;DHT22;14507;52.418;13.398;2023-03-01T02:56:36;-1.80;99.90
26952;DHT22;14507;52.418;13.398;2023-03-01T02:59:02;-1.80;99.90
26952;DHT22;14507;52.418;13.398;2023-03-01T03:01:28;-1.30;99.90
26952;DHT22;14507;52.418;13.398;2023-03-01T03:04:08;-1.90;99.90
26952;DHT22;14507;52.418;13.398;2023-03-01T03:06:35;-1.90;99.90
26952;DHT22;14507;52.418;13.398;2023-03-01T03:09:02;-1.90;99.90
26952;DHT22;14507;52.418;13.398;2023-03-01T03:11:28;-1.90;99.90
26952;DHT22;14507;52.418;13.398;2023-03-01T03:13:54;-1.90;99.90
26952;DHT22;14507;52.418;13.398;2023-03-01T03:16:20;-1.90;99.90
26952;DHT22;14507;52.418;13.398;2023-03-01T03:18:46;-1.50;99.90
26952;DHT22;14507;52.418;13.398;2023-03-01T03:21:12;-2.00;99.90
26952;DHT22;14507;52.418;13.398;2023-03-01T03:23:38;-2.00;99.90
26952;DHT22;14507;52.418;13.398;2023-03-01T03:26:05;-2.00;99.90
26952;DHT22;14507;52.418;13.398;2023-03-01T03:28:32;-1.90;99.90
26952;DHT22;14507;52.418;13.398;2023-03-01T03:30:58;-1.90;99.90
26952;DHT22;14507;52.418;13.398;2023-03-01T03:33:31;-2.00;99.90
26952;DHT22;14507;52.418;13.398;2023-03-01T03:35:57;-2.00;99.90
26952;DHT22;14507;52.418;13.398;2023-03-01T03:38:24;-1.00;99.90
26952;DHT22;14507;52.418;13.398;2023-03-01T03:40:58;-2.10;99.90
26952;DHT22;14507;52.418;13.398;2023-03-01T03:43:26;-2.10;99.90
26952;DHT22;14507;52.418;13.398;2023-03-01T03:45:52;-2.10;99.90
26952;DHT22;14507;52.418;13.398;2023-03-01T03:48:19;-2.10;99.90
26952;DHT22;14507;52.418;13.398;2023-03-01T03:50:56;-2.10;99.90
26952;DHT22;14507;52.418;13.398;2023-03-01T03:53:23;-2.10;99.90
26952;DHT22;14507;52.418;13.398;2023-03-01T03:55:49;-2.10;99.90
26952;DHT22;14507;52.418;13.398;2023-03-01T03:58:19;-0.80;99.90
26952;DHT22;14507;52.418;13.398;2023-03-01T04:00:46;-2.20;99.90
26952;DHT22;14507;52.418;13.398;2023-03-01T04:03:14;-0.90;99.90
26952;DHT22;14507;52.418;13.398;2023-03-01T04:05:41;-1.40;99.90
26952;DHT22;14507;52.418;13.398;2023-03-01T04:08:07;-2.00;99.90
26952;DHT22;14507;52.418;13.398;2023-03-01T04:10:36;-2.00;99.90
26952;DHT22;14507;52.418;13.398;2023-03-01T04:13:03;-2.30;99.90
26952;DHT22;14507;52.418;13.398;2023-03-01T04:15:29;-2.10;99.90
26952;DHT22;14507;52.418;13.398;2023-03-01T04:17:55;-0.50;99.90
26952;DHT22;14507;52.418;13.398;2023-03-01T04:20:26;-2.30;99.90
26952;DHT22;14507;52.418;13.398;2023-03-01T04:25:52;-1.50;99.90
26952;DHT22;14507;52.418;13.398;2023-03-01T04:28:31;-1.80;99.90
26952;DHT22;14507;52.418;13.398;2023-03-01T04:31:12;-2.30;99.90
26952;DHT22;14507;52.418;13.398;2023-03-01T04:33:43;-2.30;99.90
26952;DHT22;14507;52.418;13.398;2023-03-01T04:36:11;-2.10;99.90
26952;DHT22;14507;52.418;13.398;2023-03-01T04:38:38;-2.40;99.90
26952;DHT22;14507;52.418;13.398;2023-03-01T04:41:05;-1.40;99.90
26952;DHT22;14507;52.418;13.398;2023-03-01T04:43:32;-2.40;99.90
26952;DHT22;14507;52.418;13.398;2023-03-01T04:46:08;-2.40;99.90
26952;DHT22;14507;52.418;13.398;2023-03-01T04:48:39;-2.40;99.90
26952;DHT22;14507;52.418;13.398;2023-03-01T04:51:06;-2.40;99.90
26952;DHT22;14507;52.418;13.398;2023-03-01T04:53:32;-2.30;99.90
26952;DHT22;14507;52.418;13.398;2023-03-01T04:55:59;-1.50;99.90
26952;DHT22;14507;52.418;13.398;2023-03-01T04:58:26;-2.50;99.90
26952;DHT22;14507;52.418;13.398;2023-03-01T05:00:53;-2.10;99.90
26952;DHT22;14507;52.418;13.398;2023-03-01T05:03:19;-2.50;99.90
26952;DHT22;14507;52.418;13.398;2023-03-01T05:05:46;-2.30;99.90
26952;DHT22;14507;52.418;13.398;2023-03-01T05:08:12;-2.60;99.90
26952;DHT22;14507;52.418;13.398;2023-03-01T05:10:51;-2.60;99.90
26952;DHT22;14507;52.418;13.398;2023-03-01T05:13:18;-2.60;99.90
26952;DHT22;14507;52.418;13.398;2023-03-01T05:15:57;-2.50;99.90
26952;DHT22;14507;52.418;13.398;2023-03-01T05:18:24;-2.50;99.90
26952;DHT22;14507;52.418;13.398;2023-03-01T05:20:52;-2.60;99.90
26952;DHT22;14507;52.418;13.398;2023-03-01T05:23:18;-1.70;99.90
26952;DHT22;14507;52.418;13.398;2023-03-01T05:25:44;-1.30;99.90
26952;DHT22;14507;52.418;13.398;2023-03-01T05:28:13;-2.30;99.90
26952;DHT22;14507;52.418;13.398;2023-03-01T05:30:39;-2.60;99.90
26952;DHT22;14507;52.418;13.398;2023-03-01T05:33:05;-1.00;99.90
26952;DHT22;14507;52.418;13.398;2023-03-01T05:35:36;-2.60;99.90
26952;DHT22;14507;52.418;13.398;2023-03-01T05:38:02;-2.60;99.90
26952;DHT22;14507;52.418;13.398;2023-03-01T05:40:27;-1.40;99.90
26952;DHT22;14507;52.418;13.398;2023-03-01T05:42:56;-1.20;99.90
26952;DHT22;14507;52.418;13.398;2023-03-01T05:45:24;-2.60;99.90
26952;DHT22;14507;52.418;13.398;2023-03-01T05:47:50;-0.50;99.90
26952;DHT22;14507;52.418;13.398;2023-03-01T05:50:27;-1.00;99.90
26952;DHT22;14507;52.418;13.398;2023-03-01T05:53:02;-2.60;99.90
26952;DHT22;14507;52.418;13.398;2023-03-01T05:55:30;-2.40;99.90
26952;DHT22;14507;52.418;13.398;2023-03-01T05:57:59;-2.60;99.90
26952;DHT22;14507;52.418;13.398;2023-03-01T06:00:25;-0.90;99.90
26952;DHT22;14507;52.418;13.398;2023-03-01T06:02:51;-2.60;99.90
26952;DHT22;14507;52.418;13.398;2023-03-01T06:05:18;-0.70;99.90
26952;DHT22;14507;52.418;13.398;2023-03-01T06:07:44;-1.30;99.90
26952;DHT22;14507;52.418;13.398;2023-03-01T06:10:10;-2.40;99.90
26952;DHT22;14507;52.418;13.398;2023-03-01T06:12:37;-2.50;99.90
26952;DHT22;14507;52.418;13.398;2023-03-01T06:15:05;-1.30;99.90
26952;DHT22;14507;52.418;13.398;2023-03-01T06:17:33;-2.50;99.90
26952;DHT22;14507;52.418;13.398;2023-03-01T06:20:11;-0.70;99.90
26952;DHT22;14507;52.418;13.398;2023-03-01T06:22:37;-2.40;99.90
26952;DHT22;14507;52.418;13.398;2023-03-01T06:25:04;-0.60;99.90
26952;DHT22;14507;52.418;13.398;2023-03-01T06:27:30;-2.40;99.90
26952;DHT22;14507;52.418;13.398;2023-03-01T06:29:56;-0.60;99.90
26952;DHT22;14507;52.418;13.398;2023-03-01T06:32:21;-2.40;99.90
26952;DHT22;14507;52.418;13.398;2023-03-01T06:34:47;-0.20;99.90
26952;DHT22;14507;52.418;13.398;2023-03-01T06:37:13;-1.50;99.90
26952;DHT22;14507;52.418;13.398;2023-03-01T06:39:38;-0.80;99.90
26952;DHT22;14507;52.418;13.398;2023-03-01T06:42:04;-1.90;99.90
26952;DHT22;14507;52.418;13.398;2023-03-01T06:44:30;-1.90;99.90
26952;DHT22;14507;52.418;13.398;2023-03-01T06:46:55;-1.80;99.90
26952;DHT22;14507;52.418;13.398;2023-03-01T06:49:21;-0.80;99.90
26952;DHT22;14507;52.418;13.398;2023-03-01T06:51:47;-1.20;99.90
26952;DHT22;14507;52.418;13.398;2023-03-01T06:54:13;-0.70;99.90
26952;DHT22;14507;52.418;13.398;2023-03-01T06:56:39;0.70;99.90
26952;DHT22;14507;52.418;13.398;2023-03-01T06:59:04;1.90;99.90
26952;DHT22;14507;52.418;13.398;2023-03-01T07:01:30;3.90;99.90
26952;DHT22;14507;52.418;13.398;2023-03-01T07:03:56;5.60;99.50
26952;DHT22;14507;52.418;13.398;2023-03-01T07:06:23;7.00;96.30
26952;DHT22;14507;52.418;13.398;2023-03-01T07:08:49;8.10;93.00
26952;DHT22;14507;52.418;13.398;2023-03-01T07:11:15;9.00;91.20
26952;DHT22;14507;52.418;13.398;2023-03-01T07:13:41;9.50;88.90
26952;DHT22;14507;52.418;13.398;2023-03-01T07:16:07;9.90;87.00
26952;DHT22;14507;52.418;13.398;2023-03-01T07:18:33;10.30;94.30
26952;DHT22;14507;52.418;13.398;2023-03-01T07:21:03;10.40;85.50
26952;DHT22;14507;52.418;13.398;2023-03-01T07:23:28;9.80;84.60
26952;DHT22;14507;52.418;13.398;2023-03-01T07:25:55;8.80;87.20
26952;DHT22;14507;52.418;13.398;2023-03-01T07:28:23;7.70;90.60
26952;DHT22;14507;52.418;13.398;2023-03-01T07:30:49;6.60;92.70
26952;DHT22;14507;52.418;13.398;2023-03-01T07:33:14;5.60;94.90
26952;DHT22;14507;52.418;13.398;2023-03-01T07:35:40;4.90;97.00
26952;DHT22;14507;52.418;13.398;2023-03-01T07:38:06;4.30;98.80
26952;DHT22;14507;52.418;13.398;2023-03-01T07:40:31;3.80;99.90
26952;DHT22;14507;52.418;13.398;2023-03-01T07:42:58;3.40;99.90
26952;DHT22;14507;52.418;13.398;2023-03-01T07:45:24;3.00;99.90
26952;DHT22;14507;52.418;13.398;2023-03-01T07:47:51;2.80;99.90
26952;DHT22;14507;52.418;13.398;2023-03-01T07:50:19;2.60;99.90
26952;DHT22;14507;52.418;13.398;2023-03-01T07:52:46;2.50;99.90
26952;DHT22;14507;52.418;13.398;2023-03-01T07:55:12;2.30;99.90
26952;DHT22;14507;52.418;13.398;2023-03-01T07:57:38;2.30;99.90
26952;DHT22;14507;52.418;13.398;2023-03-01T08:00:04;2.30;99.90
26952;DHT22;14507;52.418;13.398;2023-03-01T08:02:31;2.20;99.90
26952;DHT22;14507;52.418;13.398;2023-03-01T08:04:56;2.30;99.90
26952;DHT22;14507;52.418;13.398;2023-03-01T08:07:22;3.30;99.90
26952;DHT22;14507;52.418;13.398;2023-03-01T08:09:48;2.30;99.90
26952;DHT22;14507;52.418;13.398;2023-03-01T08:12:13;2.30;99.90
26952;DHT22;14507;52.418;13.398;2023-03-01T08:14:41;2.50;99.90
26952;DHT22;14507;52.418;13.398;2023-03-01T08:17:07;4.00;99.90
26952;DHT22;14507;52.418;13.398;2023-03-01T08:19:33;6.20;99.90
26952;DHT22;14507;52.418;13.398;2023-03-01T08:22:02;8.80;95.50
26952;DHT22;14507;52.418;13.398;2023-03-01T08:24:28;11.30;90.70
26952;DHT22;14507;52.418;13.398;2023-03-01T08:26:54;13.70;81.80
26952;DHT22;14507;52.418;13.398;2023-03-01T08:29:20;15.70;71.40
26952;DHT22;14507;52.418;13.398;2023-03-01T08:31:46;17.20;63.30
26952;DHT22;14507;52.418;13.398;2023-03-01T08:34:14;19.60;57.10
26952;DHT22;14507;52.418;13.398;2023-03-01T08:36:45;19.10;55.40
26952;DHT22;14507;52.418;13.398;2023-03-01T08:39:13;19.50;53.40
26952;DHT22;14507;52.418;13.398;2023-03-01T08:41:40;19.80;52.30
26952;DHT22;14507;52.418;13.398;2023-03-01T08:44:06;19.30;51.90
26952;DHT22;14507;52.418;13.398;2023-03-01T08:46:38;17.90;52.90
26952;DHT22;14507;52.418;13.398;2023-03-01T08:49:05;16.90;55.00
26952;DHT22;14507;52.418;13.398;2023-03-01T08:51:32;16.60;54.50
26952;DHT22;14507;52.418;13.398;2023-03-01T08:54:02;16.20;54.40
26952;DHT22;14507;52.418;13.398;2023-03-01T08:56:28;15.90;54.60
26952;DHT22;14507;52.418;13.398;2023-03-01T08:58:54;16.40;53.50
26952;DHT22;14507;52.418;13.398;2023-03-01T09:01:20;17.10;52.90
26952;DHT22;14507;52.418;13.398;2023-03-01T09:03:45;17.80;51.30
26952;DHT22;14507;52.418;13.398;2023-03-01T09:06:11;18.60;50.50
26952;DHT22;14507;52.418;13.398;2023-03-01T09:08:42;19.20;49.70
26952;DHT22;14507;52.418;13.398;2023-03-01T09:11:10;19.90;48.60
26952;DHT22;14507;52.418;13.398;2023-03-01T09:13:36;20.50;47.10
26952;DHT22;14507;52.418;13.398;2023-03-01T09:16:05;20.90;46.70
26952;DHT22;14507;52.418;13.398;2023-03-01T09:18:32;21.10;48.00
26952;DHT22;14507;52.418;13.398;2023-03-01T09:21:06;21.00;45.20
26952;DHT22;14507;52.418;13.398;2023-03-01T09:23:38;21.00;44.90
26952;DHT22;14507;52.418;13.398;2023-03-01T09:26:31;20.80;45.30
26952;DHT22;14507;52.418;13.398;2023-03-01T09:28:57;20.70;45.00
26952;DHT22;14507;52.418;13.398;2023-03-01T09:31:24;20.60;43.70
26952;DHT22;14507;52.418;13.398;2023-03-01T09:33:52;20.30;44.50
26952;DHT22;14507;52.418;13.398;2023-03-01T09:36:19;20.00;44.70
26952;DHT22;14507;52.418;13.398;2023-03-01T09:38:46;19.50;44.00
26952;DHT22;14507;52.418;13.398;2023-03-01T09:44:10;17.70;46.20
26952;DHT22;14507;52.418;13.398;2023-03-01T09:46:42;16.20;47.00
26952;DHT22;14507;52.418;13.398;2023-03-01T09:49:33;14.60;50.00
26952;DHT22;14507;52.418;13.398;2023-03-01T09:52:19;13.50;52.30
26952;DHT22;14507;52.418;13.398;2023-03-01T09:54:49;12.20;52.70
26952;DHT22;14507;52.418;13.398;2023-03-01T09:57:36;11.30;54.20
26952;DHT22;14507;52.418;13.398;2023-03-01T10:02:45;9.70;57.70
26952;DHT22;14507;52.418;13.398;2023-03-01T10:10:54;8.30;74.80
26952;DHT22;14507;52.418;13.398;2023-03-01T10:16:48;8.10;63.60
26952;DHT22;14507;52.418;13.398;2023-03-01T10:19:39;8.10;64.80
26952;DHT22;14507;52.418;13.398;2023-03-01T10:22:18;8.10;68.90
26952;DHT22;14507;52.418;13.398;2023-03-01T10:24:47;8.30;78.40
26952;DHT22;14507;52.418;13.398;2023-03-01T10:27:17;8.30;69.60
26952;DHT22;14507;52.418;13.398;2023-03-01T10:29:49;8.40;68.80
26952;DHT22;14507;52.418;13.398;2023-03-01T10:32:17;8.50;65.00
26952;DHT22;14507;52.418;13.398;2023-03-01T10:34:43;8.50;66.60
26952;DHT22;14507;52.418;13.398;2023-03-01T10:37:17;8.60;66.10
26952;DHT22;14507;52.418;13.398;2023-03-01T10:40:08;8.50;64.60
26952;DHT22;14507;52.418;13.398;2023-03-01T10:42:46;8.50;70.30
26952;DHT22;14507;52.418;13.398;2023-03-01T10:45:33;8.50;64.20
26952;DHT22;14507;52.418;13.398;2023-03-01T10:48:20;8.50;64.80
26952;DHT22;14507;52.418;13.398;2023-03-01T10:51:05;8.50;64.60
26952;DHT22;14507;52.418;13.398;2023-03-01T10:53:41;8.50;64.50
26952;DHT22;14507;52.418;13.398;2023-03-01T10:56:10;8.50;64.00
26952;DHT22;14507;52.418;13.398;2023-03-01T10:58:39;8.40;62.00
26952;DHT22;14507;52.418;13.398;2023-03-01T11:01:26;8.30;61.90
26952;DHT22;14507;52.418;13.398;2023-03-01T11:06:30;8.20;65.60
26952;DHT22;14507;52.418;13.398;2023-03-01T11:08:56;8.20;66.50
26952;DHT22;14507;52.418;13.398;2023-03-01T11:11:33;8.30;65.70
26952;DHT22;14507;52.418;13.398;2023-03-01T11:14:33;8.40;65.60
26952;DHT22;14507;52.418;13.398;2023-03-01T11:17:15;8.30;66.20
26952;DHT22;14507;52.418;13.398;2023-03-01T11:19:42;8.20;67.40
26952;DHT22;14507;52.418;13.398;2023-03-01T11:22:18;8.20;67.60
26952;DHT22;14507;52.418;13.398;2023-03-01T11:24:51;8.30;67.00
26952;DHT22;14507;52.418;13.398;2023-03-01T11:27:26;8.30;66.80
26952;DHT22;14507;52.418;13.398;2023-03-01T11:30:04;8.30;66.90
26952;DHT22;14507;52.418;13.398;2023-03-01T11:32:43;8.30;67.10
26952;DHT22;14507;52.418;13.398;2023-03-01T11:35:16;8.30;67.90
26952;DHT22;14507;52.418;13.398;2023-03-01T11:40:17;8.40;68.40
26952;DHT22;14507;52.418;13.398;2023-03-01T11:45:58;8.50;68.30
26952;DHT22;14507;52.418;13.398;2023-03-01T11:51:02;8.60;64.70
26952;DHT22;14507;52.418;13.398;2023-03-01T11:53:33;8.60;65.10
26952;DHT22;14507;52.418;13.398;2023-03-01T11:56:05;8.70;62.20
26952;DHT22;14507;52.418;13.398;2023-03-01T11:58:42;8.70;61.80
26952;DHT22;14507;52.418;13.398;2023-03-01T12:03:54;8.70;65.00
26952;DHT22;14507;52.418;13.398;2023-03-01T12:09:25;8.80;62.80
26952;DHT22;14507;52.418;13.398;2023-03-01T12:14:46;9.00;63.60
26952;DHT22;14507;52.418;13.398;2023-03-01T12:20:15;9.00;62.60
26952;DHT22;14507;52.418;13.398;2023-03-01T12:49:50;9.00;57.40
26952;DHT22;14507;52.418;13.398;2023-03-01T12:52:19;9.20;57.00
26952;DHT22;14507;52.418;13.398;2023-03-01T12:54:50;9.20;55.70
26952;DHT22;14507;52.418;13.398;2023-03-01T12:57:26;9.30;53.80
26952;DHT22;14507;52.418;13.398;2023-03-01T13:03:00;9.50;54.40
26952;DHT22;14507;52.418;13.398;2023-03-01T13:06:01;9.50;53.60
26952;DHT22;14507;52.418;13.398;2023-03-01T13:08:42;9.30;54.00
26952;DHT22;14507;52.418;13.398;2023-03-01T13:11:20;9.30;54.90
26952;DHT22;14507;52.418;13.398;2023-03-01T13:13:47;9.30;55.00
26952;DHT22;14507;52.418;13.398;2023-03-01T13:19:08;9.30;55.00
26952;DHT22;14507;52.418;13.398;2023-03-01T13:21:35;9.40;54.70
26952;DHT22;14507;52.418;13.398;2023-03-01T13:24:01;9.30;53.40
26952;DHT22;14507;52.418;13.398;2023-03-01T13:26:26;9.20;54.40
26952;DHT22;14507;52.418;13.398;2023-03-01T13:28:56;9.10;54.70
26952;DHT22;14507;52.418;13.398;2023-03-01T13:33:55;8.90;54.40
26952;DHT22;14507;52.418;13.398;2023-03-01T13:41:55;8.80;55.50
26952;DHT22;14507;52.418;13.398;2023-03-01T13:44:32;8.90;56.00
26952;DHT22;14507;52.418;13.398;2023-03-01T13:46:59;8.90;55.50
26952;DHT22;14507;52.418;13.398;2023-03-01T13:52:34;9.00;55.10
26952;DHT22;14507;52.418;13.398;2023-03-01T13:55:01;9.00;54.10
26952;DHT22;14507;52.418;13.398;2023-03-01T13:57:33;8.90;53.60
26952;DHT22;14507;52.418;13.398;2023-03-01T13:59:59;8.90;53.70
26952;DHT22;14507;52.418;13.398;2023-03-01T14:02:25;8.90;52.90
26952;DHT22;14507;52.418;13.398;2023-03-01T14:05:01;8.90;53.60
26952;DHT22;14507;52.418;13.398;2023-03-01T14:07:28;9.00;54.10
26952;DHT22;14507;52.418;13.398;2023-03-01T14:09:59;9.00;53.60
26952;DHT22;14507;52.418;13.398;2023-03-01T14:15:32;9.00;55.10
26952;DHT22;14507;52.418;13.398;2023-03-01T14:20:49;8.90;55.10
26952;DHT22;14507;52.418;13.398;2023-03-01T14:23:22;8.90;54.40
26952;DHT22;14507;52.418;13.398;2023-03-01T14:25:51;8.80;54.90
26952;DHT22;14507;52.418;13.398;2023-03-01T14:28:28;8.80;54.50
26952;DHT22;14507;52.418;13.398;2023-03-01T14:30:57;8.80;54.60
26952;DHT22;14507;52.418;13.398;2023-03-01T14:33:29;8.80;54.00
26952;DHT22;14507;52.418;13.398;2023-03-01T14:38:37;8.90;54.20
26952;DHT22;14507;52.418;13.398;2023-03-01T14:41:16;8.80;53.90
26952;DHT22;14507;52.418;13.398;2023-03-01T14:43:54;8.70;53.80
26952;DHT22;14507;52.418;13.398;2023-03-01T14:46:41;8.70;55.00
26952;DHT22;14507;52.418;13.398;2023-03-01T14:49:15;8.70;54.40
26952;DHT22;14507;52.418;13.398;2023-03-01T14:51:46;8.70;55.00
26952;DHT22;14507;52.418;13.398;2023-03-01T14:54:42;8.70;55.40
26952;DHT22;14507;52.418;13.398;2023-03-01T14:57:16;8.70;55.80
26952;DHT22;14507;52.418;13.398;2023-03-01T14:59:42;8.80;55.80
26952;DHT22;14507;52.418;13.398;2023-03-01T15:02:13;8.80;56.30
26952;DHT22;14507;52.418;13.398;2023-03-01T15:04:53;8.90;55.80
26952;DHT22;14507;52.418;13.398;2023-03-01T15:07:19;8.80;56.60
26952;DHT22;14507;52.418;13.398;2023-03-01T15:09:45;8.80;56.80
26952;DHT22;14507;52.418;13.398;2023-03-01T15:14:54;8.80;56.10
26952;DHT22;14507;52.418;13.398;2023-03-01T15:17:33;8.80;56.10
26952;DHT22;14507;52.418;13.398;2023-03-01T15:20:05;8.70;56.80
26952;DHT22;14507;52.418;13.398;2023-03-01T15:22:32;8.70;57.10
26952;DHT22;14507;52.418;13.398;2023-03-01T15:24:57;8.70;57.70
26952;DHT22;14507;52.418;13.398;2023-03-01T15:27:25;8.70;58.40
26952;DHT22;14507;52.418;13.398;2023-03-01T15:29:58;8.70;58.50
26952;DHT22;14507;52.418;13.398;2023-03-01T15:32:30;8.70;58.60
26952;DHT22;14507;52.418;13.398;2023-03-01T15:34:58;8.60;59.00
26952;DHT22;14507;52.418;13.398;2023-03-01T15:40:19;8.60;57.90
26952;DHT22;14507;52.418;13.398;2023-03-01T15:42:45;8.60;58.10
26952;DHT22;14507;52.418;13.398;2023-03-01T15:47:48;8.50;57.60
26952;DHT22;14507;52.418;13.398;2023-03-01T15:50:35;8.50;57.50
26952;DHT22;14507;52.418;13.398;2023-03-01T15:53:06;8.40;58.20
26952;DHT22;14507;52.418;13.398;2023-03-01T15:55:33;8.30;58.20
26952;DHT22;14507;52.418;13.398;2023-03-01T15:58:21;8.30;57.90
26952;DHT22;14507;52.418;13.398;2023-03-01T16:00:47;8.30;57.40
26952;DHT22;14507;52.418;13.398;2023-03-01T16:03:14;8.30;57.90
26952;DHT22;14507;52.418;13.398;2023-03-01T16:05:47;8.30;58.60
26952;DHT22;14507;52.418;13.398;2023-03-01T16:08:13;8.30;59.30
26952;DHT22;14507;52.418;13.398;2023-03-01T16:10:40;8.20;59.90
26952;DHT22;14507;52.418;13.398;2023-03-01T16:13:07;8.20;60.80
26952;DHT22;14507;52.418;13.398;2023-03-01T16:15:33;8.10;61.30
26952;DHT22;14507;52.418;13.398;2023-03-01T16:18:04;8.00;61.90
26952;DHT22;14507;52.418;13.398;2023-03-01T16:20:31;8.00;62.20
26952;DHT22;14507;52.418;13.398;2023-03-01T16:23:02;7.90;62.50
26952;DHT22;14507;52.418;13.398;2023-03-01T16:25:29;7.90;63.10
26952;DHT22;14507;52.418;13.398;2023-03-01T16:27:55;7.80;63.80
26952;DHT22;14507;52.418;13.398;2023-03-01T16:30:23;7.70;63.20
26952;DHT22;14507;52.418;13.398;2023-03-01T16:32:50;7.70;63.30
26952;DHT22;14507;52.418;13.398;2023-03-01T16:35:19;7.60;63.80
26952;DHT22;14507;52.418;13.398;2023-03-01T16:37:46;7.60;64.40
26952;DHT22;14507;52.418;13.398;2023-03-01T16:40:23;7.50;64.70
26952;DHT22;14507;52.418;13.398;2023-03-01T16:42:50;7.40;64.70
26952;DHT22;14507;52.418;13.398;2023-03-01T16:45:16;7.30;66.00
26952;DHT22;14507;52.418;13.398;2023-03-01T16:47:42;7.20;66.60
26952;DHT22;14507;52.418;13.398;2023-03-01T16:50:09;7.10;67.20
26952;DHT22;14507;52.418;13.398;2023-03-01T16:52:34;7.00;68.60
26952;DHT22;14507;52.418;13.398;2023-03-01T16:55:02;7.00;68.30
26952;DHT22;14507;52.418;13.398;2023-03-01T16:57:29;6.90;68.50
26952;DHT22;14507;52.418;13.398;2023-03-01T16:59:55;6.80;70.00
26952;DHT22;14507;52.418;13.398;2023-03-01T17:02:21;6.70;71.50
26952;DHT22;14507;52.418;13.398;2023-03-01T17:04:54;6.70;72.90
26952;DHT22;14507;52.418;13.398;2023-03-01T17:07:20;6.60;73.60
26952;DHT22;14507;52.418;13.398;2023-03-01T17:09:46;6.50;74.20
26952;DHT22;14507;52.418;13.398;2023-03-01T17:12:13;6.40;74.60
26952;DHT22;14507;52.418;13.398;2023-03-01T17:14:39;6.40;75.10
26952;DHT22;14507;52.418;13.398;2023-03-01T17:17:10;6.30;75.20
26952;DHT22;14507;52.418;13.398;2023-03-01T17:19:36;6.30;75.70
26952;DHT22;14507;52.418;13.398;2023-03-01T17:22:09;6.20;76.00